Time;durP1;ratioP1;P1;durP2;ratioP2;P2;SDS_P1;SDS_P2;PMS_P1;PMS_P2;Temp;Humidity;BMP_temperature;BMP_pressure;BME280_temperature;BME280_humidity;BME280_pressure;Samples;Min_cycle;Max_cycle;Signal;HPM_P1;HPM_P2
2022/09/09 00:01:37;;;;;;;0.88;0.70;;;16.40;93.40;;;;;;6190714;23;20001;-86
2022/09/09 00:04:12;;;;;;;;;;;16.40;93.60;;;;;;6192166;23;20001;-85
2022/09/09 00:07:06;;;;;;;0.80;0.80;;;16.40;93.80;;;;;;6193212;23;19901;-85
2022/09/09 00:09:52;;;;;;;2.45;0.90;;;16.30;93.80;;;;;;6158389;23;20019;-86
2022/09/09 00:12:51;;;;;;;4.07;1.38;;;16.30;94.00;;;;;;6233607;22;20016;-85
2022/09/09 00:15:20;;;;;;;1.73;1.42;;;16.30;94.10;;;;;;6205831;23;20071;-84
2022/09/09 00:18:24;;;;;;;1.90;0.90;;;16.20;94.30;;;;;;6210969;23;20020;-86
2022/09/09 00:21:07;;;;;;;1.45;0.93;;;16.20;94.50;;;;;;6211446;23;19993;-85
2022/09/09 00:23:39;;;;;;;0.75;0.73;;;16.20;94.80;;;;;;6235588;22;20052;-86
2022/09/09 00:26:19;;;;;;;1.33;0.95;;;16.20;94.90;;;;;;6235623;22;19996;-86
2022/09/09 00:29:17;;;;;;;0.75;0.75;;;16.20;95.10;;;;;;6231775;22;20096;-86
2022/09/09 00:31:43;;;;;;;0.93;0.73;;;16.20;95.20;;;;;;6228392;22;20052;-86
2022/09/09 00:34:15;;;;;;;1.05;0.95;;;16.20;95.30;;;;;;6225026;22;20017;-86
2022/09/09 00:36:41;;;;;;;;;;;16.30;95.30;;;;;;6212950;23;20005;-86
2022/09/09 00:39:25;;;;;;;0.60;0.60;;;16.30;95.30;;;;;;6189211;23;20434;-88
2022/09/09 00:42:13;;;;;;;0.70;0.70;;;16.20;95.30;;;;;;6190927;23;20005;-86
2022/09/09 00:44:46;;;;;;;1.55;0.95;;;16.30;95.30;;;;;;6217490;23;20001;-86
2022/09/09 00:47:36;;;;;;;0.82;0.82;;;16.30;95.40;;;;;;6213913;23;20024;-85
2022/09/09 00:50:26;;;;;;;1.75;1.00;;;16.20;95.60;;;;;;6224924;22;20003;-86
2022/09/09 00:53:23;;;;;;;1.63;1.10;;;16.20;95.80;;;;;;6218247;23;20005;-86
2022/09/09 00:56:00;;;;;;;2.15;1.00;;;16.20;96.00;;;;;;6205903;23;20016;-86
2022/09/09 00:58:27;;;;;;;0.73;0.73;;;16.20;96.20;;;;;;6214142;23;20016;-86
2022/09/09 01:01:06;;;;;;;0.77;0.75;;;16.20;96.40;;;;;;6205397;23;20016;-86
2022/09/09 01:03:34;;;;;;;0.88;0.80;;;16.20;96.60;;;;;;6199668;23;20004;-86
2022/09/09 01:06:15;;;;;;;1.10;1.00;;;16.10;96.80;;;;;;6214634;22;19996;-85
2022/09/09 01:09:29;;;;;;;1.98;1.10;;;16.00;97.00;;;;;;6213153;23;20012;-86
2022/09/09 01:12:10;;;;;;;1.13;1.00;;;16.00;97.30;;;;;;6191659;23;20009;-86
2022/09/09 01:14:39;;;;;;;0.80;0.80;;;16.00;97.40;;;;;;6201432;23;20447;-86
2022/09/09 01:17:24;;;;;;;1.58;1.00;;;16.10;97.40;;;;;;6202488;23;20024;-85
2022/09/09 01:20:02;;;;;;;1.27;0.90;;;16.10;97.30;;;;;;6197049;23;20000;-86
2022/09/09 01:23:07;;;;;;;1.98;0.80;;;16.10;97.20;;;;;;6195586;23;20020;-86
2022/09/09 01:26:04;;;;;;;2.45;0.82;;;16.20;97.10;;;;;;6209333;22;20001;-85
2022/09/09 01:28:35;;;;;;;1.85;0.90;;;16.30;96.90;;;;;;6216277;22;20036;-85
2022/09/09 01:31:02;;;;;;;1.05;0.90;;;16.30;96.70;;;;;;6216388;22;20008;-85
2022/09/09 01:33:27;;;;;;;0.90;0.85;;;16.40;96.50;;;;;;6215926;22;20035;-86
2022/09/09 01:36:00;;;;;;;2.22;0.82;;;16.30;96.40;;;;;;6242019;22;20000;-84
2022/09/09 01:38:27;;;;;;;3.15;1.10;;;16.30;96.30;;;;;;6215724;22;20009;-85
2022/09/09 01:40:54;;;;;;;0.70;0.70;;;16.30;96.20;;;;;;6215948;22;20047;-85
2022/09/09 01:43:25;;;;;;;2.10;1.05;;;16.30;96.20;;;;;;6207412;23;20004;-85
2022/09/09 01:45:55;;;;;;;1.45;1.10;;;16.20;96.20;;;;;;6190845;23;20098;-85
2022/09/09 01:48:23;;;;;;;2.58;0.70;;;16.20;96.30;;;;;;6191447;23;20020;-85
2022/09/09 01:50:49;;;;;;;4.15;1.05;;;16.10;96.50;;;;;;6218563;23;20072;-85
2022/09/09 01:53:16;;;;;;;2.35;0.75;;;16.10;96.60;;;;;;6218795;23;20000;-85
2022/09/09 01:55:55;;;;;;;0.68;0.68;;;16.20;96.80;;;;;;6192351;23;20498;-86
2022/09/09 01:58:51;;;;;;;0.80;0.75;;;16.10;96.70;;;;;;6191808;23;20001;-85
2022/09/09 02:01:49;;;;;;;0.82;0.80;;;16.10;96.80;;;;;;6192239;23;20008;-85
2022/09/09 02:04:43;;;;;;;0.80;0.80;;;16.00;97.10;;;;;;6168885;23;20016;-85
2022/09/09 02:07:40;;;;;;;0.90;0.80;;;16.00;97.20;;;;;;6219557;23;20003;-85
2022/09/09 02:10:21;;;;;;;0.75;0.75;;;15.90;97.40;;;;;;6212512;23;20079;-85
2022/09/09 02:12:59;;;;;;;1.25;0.80;;;15.90;97.50;;;;;;6193501;23;20087;-85
2022/09/09 02:15:54;;;;;;;1.33;0.90;;;15.90;97.50;;;;;;6221793;23;19996;-85
2022/09/09 02:18:51;;;;;;;0.70;0.70;;;15.90;97.70;;;;;;6195883;23;20324;-85
2022/09/09 02:21:17;;;;;;;1.02;0.88;;;15.80;97.90;;;;;;6234943;23;19997;-85
2022/09/09 02:23:46;;;;;;;1.10;0.60;;;15.80;98.10;;;;;;6209140;23;20004;-85
2022/09/09 02:26:21;;;;;;;1.00;0.73;;;15.80;98.20;;;;;;6228792;23;20004;-86
2022/09/09 02:28:49;;;;;;;0.60;0.60;;;15.80;98.30;;;;;;6222375;23;20004;-85
2022/09/09 02:31:18;;;;;;;0.57;0.57;;;15.80;98.40;;;;;;6194988;23;20001;-86
2022/09/09 02:33:52;;;;;;;0.50;0.50;;;15.80;98.50;;;;;;6221589;23;20420;-86
2022/09/09 02:36:20;;;;;;;0.85;0.47;;;15.80;98.50;;;;;;6193918;23;20436;-85
2022/09/09 02:38:52;;;;;;;0.73;0.70;;;15.90;98.50;;;;;;6227681;22;20004;-85
2022/09/09 02:41:28;;;;;;;0.80;0.80;;;15.90;98.50;;;;;;6217853;23;20024;-85
2022/09/09 02:43:53;;;;;;;1.45;0.50;;;15.90;98.40;;;;;;6191936;23;20008;-86
2022/09/09 02:47:00;;;;;;;0.60;0.57;;;15.90;98.40;;;;;;6192024;23;20070;-85
2022/09/09 02:50:02;;;;;;;1.10;0.70;;;15.90;98.40;;;;;;6175698;22;19994;-85
2022/09/09 02:52:58;;;;;;;0.90;0.70;;;16.00;98.40;;;;;;6220081;23;20060;-86
2022/09/09 02:55:37;;;;;;;0.77;0.77;;;15.90;98.60;;;;;;6204813;22;20017;-85
2022/09/09 02:58:06;;;;;;;0.70;0.60;;;16.00;98.90;;;;;;6216174;22;20000;-85
2022/09/09 03:00:35;;;;;;;0.50;0.50;;;15.90;98.90;;;;;;6215959;22;20010;-85
2022/09/09 03:03:03;;;;;;;0.70;0.70;;;15.90;99.00;;;;;;6216152;22;20013;-85
2022/09/09 03:05:29;;;;;;;0.77;0.77;;;15.80;99.40;;;;;;6215519;22;20027;-85
2022/09/09 03:07:54;;;;;;;1.08;0.70;;;15.80;99.30;;;;;;6214464;22;19993;-85
2022/09/09 03:10:20;;;;;;;1.17;0.63;;;15.80;99.50;;;;;;6191569;23;20000;-84
2022/09/09 03:12:46;;;;;;;0.80;0.60;;;15.80;99.70;;;;;;6217779;23;20003;-85
2022/09/09 03:15:12;;;;;;;0.93;0.93;;;15.70;99.80;;;;;;6190426;23;20001;-85
2022/09/09 03:17:39;;;;;;;1.15;0.80;;;15.70;99.90;;;;;;6191184;23;20009;-85
2022/09/09 03:20:05;;;;;;;1.75;0.90;;;15.70;99.90;;;;;;6190653;23;20498;-85
2022/09/09 03:22:30;;;;;;;1.58;1.05;;;15.60;99.90;;;;;;6217465;23;20011;-85
2022/09/09 03:24:56;;;;;;;0.90;0.90;;;15.60;99.90;;;;;;6190425;23;20040;-84
2022/09/09 03:27:22;;;;;;;3.67;0.95;;;15.60;99.90;;;;;;6217120;23;20500;-85
2022/09/09 03:29:50;;;;;;;0.88;0.80;;;15.50;99.90;;;;;;6191296;23;20012;-85
2022/09/09 03:32:22;;;;;;;1.00;0.90;;;15.50;99.90;;;;;;6191970;23;20049;-85
2022/09/09 03:34:51;;;;;;;1.13;1.00;;;15.40;99.90;;;;;;6208816;23;20019;-86
2022/09/09 03:37:20;;;;;;;0.82;0.70;;;15.40;99.90;;;;;;6216561;23;20270;-85
2022/09/09 03:39:46;;;;;;;0.95;0.90;;;15.40;99.90;;;;;;6239565;22;19989;-84
2022/09/09 03:42:18;;;;;;;2.05;0.80;;;15.30;99.90;;;;;;6211785;23;20016;-85
2022/09/09 03:44:49;;;;;;;2.15;0.77;;;15.30;99.90;;;;;;6190578;23;20047;-86
2022/09/09 03:47:21;;;;;;;1.40;0.80;;;15.30;99.90;;;;;;6191674;23;20402;-85
2022/09/09 03:49:50;;;;;;;1.13;0.93;;;15.30;99.90;;;;;;6191795;23;20012;-86
2022/09/09 03:52:16;;;;;;;0.73;0.70;;;15.30;99.90;;;;;;6197577;23;20071;-86
2022/09/09 03:54:42;;;;;;;1.67;0.85;;;15.40;99.90;;;;;;6198184;23;20126;-86
2022/09/09 03:57:10;;;;;;;1.25;0.80;;;15.50;99.90;;;;;;6222267;23;20000;-86
2022/09/09 03:59:36;;;;;;;0.60;0.60;;;15.50;99.90;;;;;;6196902;23;20012;-85
2022/09/09 04:02:04;;;;;;;1.48;0.70;;;15.60;99.90;;;;;;6222825;23;20034;-86
2022/09/09 04:04:32;;;;;;;1.15;0.88;;;15.60;99.90;;;;;;6197811;23;20008;-86
2022/09/09 04:06:58;;;;;;;1.55;0.80;;;15.70;99.90;;;;;;6203002;23;20016;-86
2022/09/09 04:09:24;;;;;;;1.00;0.90;;;15.80;99.90;;;;;;6210846;22;20008;-85
2022/09/09 04:11:50;;;;;;;1.80;0.77;;;15.80;99.90;;;;;;6216670;22;19997;-85
2022/09/09 04:14:16;;;;;;;2.75;0.73;;;15.90;99.90;;;;;;6217958;22;20000;-85
2022/09/09 04:16:44;;;;;;;2.30;1.10;;;15.90;99.90;;;;;;6217744;22;19997;-85
2022/09/09 04:19:14;;;;;;;0.80;0.80;;;15.90;99.90;;;;;;6218006;22;20069;-85
2022/09/09 04:21:40;;;;;;;0.68;0.68;;;15.80;99.90;;;;;;6241808;22;19996;-86
2022/09/09 04:24:09;;;;;;;3.42;0.70;;;15.80;99.90;;;;;;6216746;23;20076;-86
2022/09/09 04:26:36;;;;;;;0.80;0.80;;;15.70;99.90;;;;;;6214924;23;20004;-86
2022/09/09 04:29:04;;;;;;;0.68;0.68;;;15.70;99.90;;;;;;6210830;23;20013;-86
2022/09/09 04:31:30;;;;;;;0.70;0.70;;;15.60;99.90;;;;;;6193364;23;20102;-86
2022/09/09 04:33:56;;;;;;;0.60;0.60;;;15.60;99.90;;;;;;6192482;23;20002;-86
2022/09/09 04:36:22;;;;;;;0.63;0.63;;;15.60;99.90;;;;;;6191840;23;20016;-86
2022/09/09 04:38:50;;;;;;;0.50;0.50;;;15.60;99.90;;;;;;6191660;23;20001;-85
2022/09/09 04:41:19;;;;;;;1.10;0.90;;;15.50;99.90;;;;;;6192329;23;20011;-86
2022/09/09 04:43:45;;;;;;;1.10;0.95;;;15.40;99.90;;;;;;6192765;23;20005;-86
2022/09/09 04:46:13;;;;;;;1.92;0.70;;;15.30;99.90;;;;;;6219632;23;20071;-86
2022/09/09 04:48:39;;;;;;;1.17;0.88;;;15.30;99.90;;;;;;6233163;23;20001;-85
2022/09/09 04:51:06;;;;;;;0.68;0.57;;;15.30;99.90;;;;;;6242433;22;19993;-85
2022/09/09 04:53:34;;;;;;;1.55;1.00;;;15.30;99.90;;;;;;6216449;22;20008;-84
2022/09/09 04:56:04;;;;;;;0.80;0.80;;;15.20;99.90;;;;;;6208351;23;20048;-86
2022/09/09 04:58:30;;;;;;;0.70;0.70;;;15.20;99.90;;;;;;6190798;22;19988;-85
2022/09/09 05:01:03;;;;;;;1.67;1.00;;;15.20;99.90;;;;;;6203028;23;20001;-81
2022/09/09 05:03:29;;;;;;;1.10;0.60;;;15.20;99.90;;;;;;6204926;23;20036;-83
2022/09/09 05:06:02;;;;;;;0.60;0.60;;;15.20;99.90;;;;;;6203962;23;20005;-82
2022/09/09 05:08:29;;;;;;;2.25;1.13;;;15.20;99.90;;;;;;6205011;23;20015;-81
2022/09/09 05:10:55;;;;;;;0.93;0.85;;;15.30;99.90;;;;;;6226761;23;20009;-81
2022/09/09 05:13:22;;;;;;;2.38;0.80;;;15.30;99.90;;;;;;6207385;23;20009;-81
2022/09/09 05:15:52;;;;;;;0.93;0.93;;;15.30;99.90;;;;;;6204752;23;20383;-82
2022/09/09 05:21:41;;;;;;;1.52;0.80;;;15.30;99.90;;;;;;6205222;23;20016;-81
2022/09/09 05:27:13;;;;;;;1.23;0.93;;;15.30;99.90;;;;;;6183188;23;20470;-82
2022/09/09 05:30:36;;;;;;;1.63;0.90;;;15.30;99.90;;;;;;6208689;23;20032;-83
2022/09/09 05:33:02;;;;;;;;;;;15.30;99.90;;;;;;6219124;23;20119;-83
2022/09/09 05:35:29;;;;;;;0.93;0.93;;;15.30;99.90;;;;;;6208193;23;19900;-83
2022/09/09 05:37:59;;;;;;;4.28;0.88;;;15.40;99.90;;;;;;6231531;23;20009;-82
2022/09/09 05:40:25;;;;;;;2.20;1.05;;;15.40;99.90;;;;;;6228876;23;20005;-82
2022/09/09 05:42:50;;;;;;;1.55;0.88;;;15.40;99.90;;;;;;6203956;23;20005;-82
2022/09/09 05:45:16;;;;;;;2.17;1.00;;;15.60;99.90;;;;;;6205468;23;20094;-82
2022/09/09 05:47:42;;;;;;;1.10;1.00;;;15.60;99.90;;;;;;6229121;23;20005;-82
2022/09/09 05:50:08;;;;;;;1.70;1.00;;;15.60;99.90;;;;;;6228348;23;20009;-82
2022/09/09 05:52:33;;;;;;;1.38;1.00;;;15.70;99.90;;;;;;6201822;23;20023;-82
2022/09/09 05:54:59;;;;;;;0.80;0.75;;;15.70;99.90;;;;;;6197209;23;20001;-82
2022/09/09 05:57:25;;;;;;;1.65;0.80;;;15.80;99.90;;;;;;6217524;23;20008;-83
2022/09/09 05:59:50;;;;;;;1.10;1.00;;;15.80;99.90;;;;;;6209492;23;20012;-83
2022/09/09 06:02:16;;;;;;;0.90;0.70;;;15.90;99.90;;;;;;6220928;23;20004;-82
2022/09/09 06:04:42;;;;;;;1.40;1.00;;;15.90;99.90;;;;;;6194123;23;20007;-84
2022/09/09 06:07:07;;;;;;;0.75;0.75;;;15.90;99.90;;;;;;6193786;23;20047;-85
2022/09/09 06:09:33;;;;;;;3.35;1.23;;;16.00;99.90;;;;;;6198110;23;20008;-85
2022/09/09 06:11:59;;;;;;;1.13;1.02;;;16.10;99.90;;;;;;6232358;23;20008;-84
2022/09/09 06:14:26;;;;;;;1.08;0.95;;;16.20;99.90;;;;;;6204152;23;20015;-84
2022/09/09 06:17:27;;;;;;;2.05;1.02;;;16.20;99.90;;;;;;6223357;23;20001;-82
2022/09/09 06:19:53;;;;;;;1.20;0.80;;;16.30;99.90;;;;;;6207980;23;20015;-83
2022/09/09 06:22:19;;;;;;;0.95;0.90;;;16.40;99.80;;;;;;6220758;23;20016;-83
2022/09/09 06:24:44;;;;;;;1.83;1.15;;;16.40;99.60;;;;;;6201171;23;20005;-84
2022/09/09 06:27:10;;;;;;;3.58;0.70;;;16.50;99.20;;;;;;6195715;23;20004;-82
2022/09/09 06:29:47;;;;;;;2.38;0.70;;;16.50;99.00;;;;;;6218633;23;20027;-83
2022/09/09 06:32:34;;;;;;;4.22;1.00;;;16.50;98.80;;;;;;6217853;23;20031;-84
2022/09/09 06:35:01;;;;;;;3.28;1.13;;;16.30;98.70;;;;;;6221285;23;20001;-84
2022/09/09 06:37:27;;;;;;;3.22;0.90;;;16.40;99.20;;;;;;6225100;23;20012;-83
2022/09/09 06:39:54;;;;;;;2.70;0.82;;;16.30;98.90;;;;;;6198680;23;20008;-84
2022/09/09 06:42:20;;;;;;;0.80;0.80;;;16.30;98.70;;;;;;6199591;23;20054;-81
2022/09/09 06:44:45;;;;;;;1.08;0.77;;;16.30;98.80;;;;;;6202905;23;19992;-84
2022/09/09 06:47:11;;;;;;;1.75;0.80;;;16.30;98.80;;;;;;6228485;23;20005;-83
2022/09/09 06:49:37;;;;;;;0.73;0.60;;;16.40;98.90;;;;;;6196874;23;20264;-85
2022/09/09 06:52:02;;;;;;;0.50;0.50;;;16.40;98.80;;;;;;6197062;23;20008;-84
2022/09/09 06:54:28;;;;;;;1.23;0.75;;;16.50;98.60;;;;;;6197121;23;20004;-83
2022/09/09 06:56:54;;;;;;;4.07;0.93;;;16.70;98.40;;;;;;6223627;23;20027;-84
2022/09/09 06:59:19;;;;;;;2.67;1.20;;;16.80;98.10;;;;;;6224045;23;20012;-84
2022/09/09 07:01:46;;;;;;;0.98;0.60;;;17.00;97.60;;;;;;6224192;23;20035;-86
2022/09/09 07:04:13;;;;;;;3.38;1.00;;;17.10;97.30;;;;;;6224810;23;20028;-85
2022/09/09 07:06:42;;;;;;;1.52;0.43;;;17.20;96.90;;;;;;6200279;23;20012;-84
2022/09/09 07:09:10;;;;;;;1.27;0.52;;;17.40;96.60;;;;;;6201798;23;20012;-84
2022/09/09 07:11:45;;;;;;;1.40;0.70;;;17.40;96.40;;;;;;6200151;23;20447;-85
2022/09/09 07:14:14;;;;;;;0.95;0.80;;;17.40;96.20;;;;;;6226953;23;20036;-84
2022/09/09 07:16:42;;;;;;;2.45;0.77;;;17.50;95.90;;;;;;6194869;23;20076;-82
2022/09/09 07:19:07;;;;;;;1.92;0.60;;;17.50;95.90;;;;;;6195879;23;20028;-85
2022/09/09 07:21:33;;;;;;;1.08;0.98;;;17.50;95.80;;;;;;6195664;23;20050;-82
2022/09/09 07:23:59;;;;;;;2.10;0.70;;;17.60;95.70;;;;;;6220114;23;20005;-82
2022/09/09 07:26:28;;;;;;;4.32;1.23;;;17.60;95.60;;;;;;6219747;23;20035;-83
2022/09/09 07:28:57;;;;;;;6.95;1.13;;;17.50;95.80;;;;;;6218380;23;20080;-83
2022/09/09 07:31:27;;;;;;;2.38;0.80;;;17.40;96.40;;;;;;6193436;23;20046;-83
2022/09/09 07:33:53;;;;;;;5.03;1.58;;;17.30;96.90;;;;;;6194272;23;20443;-83
2022/09/09 07:36:22;;;;;;;1.92;0.98;;;17.10;97.20;;;;;;6194306;23;20072;-83
2022/09/09 07:38:56;;;;;;;1.75;1.10;;;17.10;97.70;;;;;;6220837;23;20064;-84
2022/09/09 07:41:35;;;;;;;3.08;1.35;;;17.10;98.10;;;;;;6221632;23;20039;-83
2022/09/09 07:44:08;;;;;;;1.15;0.88;;;17.20;97.90;;;;;;6193705;23;20493;-84
2022/09/09 07:46:35;;;;;;;2.00;0.73;;;17.30;97.90;;;;;;6195539;23;20012;-82
2022/09/09 07:49:02;;;;;;;0.98;0.98;;;17.50;97.70;;;;;;6222978;23;20001;-83
2022/09/09 07:51:30;;;;;;;1.98;1.00;;;17.80;97.00;;;;;;6196232;23;20036;-83
2022/09/09 07:54:03;;;;;;;2.50;1.15;;;18.10;96.40;;;;;;6195216;23;20001;-82
2022/09/09 07:56:30;;;;;;;2.97;0.90;;;18.30;95.50;;;;;;6223011;23;20008;-82
2022/09/09 07:58:58;;;;;;;1.38;0.68;;;18.30;94.90;;;;;;6194481;23;20005;-83
2022/09/09 08:01:30;;;;;;;1.30;0.90;;;18.40;94.70;;;;;;6194884;23;20008;-84
2022/09/09 08:03:59;;;;;;;2.13;0.90;;;18.40;94.60;;;;;;6194319;23;20351;-83
2022/09/09 08:06:26;;;;;;;1.63;1.20;;;18.40;94.50;;;;;;6195068;23;20074;-82
2022/09/09 08:08:54;;;;;;;1.00;1.00;;;18.30;94.50;;;;;;6196590;23;20055;-84
2022/09/09 08:11:22;;;;;;;1.20;1.00;;;18.40;94.40;;;;;;6224566;23;20035;-83
2022/09/09 08:13:49;;;;;;;1.08;0.98;;;18.40;94.40;;;;;;6195663;23;20429;-83
2022/09/09 08:16:18;;;;;;;1.50;0.90;;;18.60;94.30;;;;;;6197179;23;20059;-83
2022/09/09 08:18:44;;;;;;;0.68;0.60;;;18.70;93.90;;;;;;6195136;23;20443;-84
2022/09/09 08:21:17;;;;;;;2.85;1.20;;;18.70;93.60;;;;;;6197368;23;20004;-82
2022/09/09 08:23:45;;;;;;;4.30;1.02;;;18.70;93.20;;;;;;6195551;23;20008;-81
2022/09/09 08:26:22;;;;;;;3.92;1.10;;;18.80;93.00;;;;;;6194575;23;20001;-83
2022/09/09 08:28:52;;;;;;;4.25;1.10;;;18.80;92.60;;;;;;6195492;23;20001;-83
2022/09/09 08:31:24;;;;;;;1.35;1.25;;;18.80;92.80;;;;;;6222367;23;20281;-83
2022/09/09 08:33:50;;;;;;;2.33;1.00;;;18.90;92.60;;;;;;6195895;23;20028;-82
2022/09/09 08:36:21;;;;;;;1.33;0.98;;;19.00;92.70;;;;;;6222539;23;20004;-85
2022/09/09 08:38:52;;;;;;;1.17;1.05;;;19.20;92.60;;;;;;6222682;23;20001;-83
2022/09/09 08:41:48;;;;;;;2.08;0.95;;;19.30;92.10;;;;;;6221871;23;20000;-83
2022/09/09 08:44:39;;;;;;;1.27;1.10;;;19.50;91.70;;;;;;6195974;23;20005;-83
2022/09/09 08:47:42;;;;;;;2.17;1.13;;;19.50;90.80;;;;;;6194421;23;20442;-83
2022/09/09 08:50:35;;;;;;;1.73;0.80;;;19.30;90.80;;;;;;6221424;23;20005;-83
2022/09/09 08:53:21;;;;;;;1.50;0.98;;;19.10;91.50;;;;;;6194398;23;20011;-84
2022/09/09 08:55:58;;;;;;;1.45;1.00;;;18.90;91.90;;;;;;6196169;23;19993;-82
2022/09/09 08:58:30;;;;;;;2.25;1.27;;;18.80;92.40;;;;;;6231731;22;19984;-88
2022/09/09 09:01:28;;;;;;;2.85;1.40;;;18.80;92.50;;;;;;6197310;23;20518;-81
2022/09/09 09:04:07;;;;;;;3.55;1.40;;;18.80;92.60;;;;;;6196028;23;20004;-82
2022/09/09 09:06:39;;;;;;;2.88;1.20;;;18.70;92.30;;;;;;6203490;23;20000;-83
2022/09/09 09:09:13;;;;;;;2.72;1.42;;;18.70;92.90;;;;;;6194696;23;20273;-85
2022/09/09 09:12:16;;;;;;;2.50;0.90;;;18.70;93.50;;;;;;6230352;23;20042;-90
2022/09/09 09:14:46;;;;;;;1.33;1.20;;;18.90;93.70;;;;;;6180643;23;20015;-82
2022/09/09 09:17:14;;;;;;;1.95;1.13;;;19.00;93.80;;;;;;6195708;23;20028;-83
2022/09/09 09:19:41;;;;;;;1.88;1.13;;;19.00;93.70;;;;;;6196667;23;20015;-83
2022/09/09 09:22:22;;;;;;;1.63;0.88;;;19.10;93.90;;;;;;6195612;23;20000;-84
2022/09/09 09:25:28;;;;;;;2.10;0.80;;;19.30;93.90;;;;;;6212160;23;20004;-82
2022/09/09 09:28:29;;;;;;;1.70;0.73;;;19.40;93.40;;;;;;6168096;23;20009;-81
2022/09/09 09:31:05;;;;;;;2.22;0.80;;;19.60;92.70;;;;;;6201716;23;20060;-82
2022/09/09 09:33:49;;;;;;;1.83;1.02;;;19.90;92.10;;;;;;6202363;23;20100;-82
2022/09/09 09:36:16;;;;;;;0.85;0.70;;;20.30;90.70;;;;;;6201674;23;19997;-82
2022/09/09 09:39:21;;;;;;;0.77;0.75;;;20.60;85.20;;;;;;6202819;23;20000;-84
2022/09/09 09:41:47;;;;;;;1.55;0.75;;;20.70;82.90;;;;;;6189660;23;19997;-83
2022/09/09 09:44:50;;;;;;;0.95;0.93;;;20.70;81.90;;;;;;6230283;23;20086;-82
2022/09/09 09:47:23;;;;;;;1.33;0.80;;;20.50;81.00;;;;;;6199026;23;20339;-82
2022/09/09 09:49:59;;;;;;;1.67;0.95;;;20.40;82.20;;;;;;6220930;23;20019;-83
2022/09/09 09:52:30;;;;;;;1.42;0.82;;;20.20;83.40;;;;;;6198144;23;20012;-83
2022/09/09 09:55:06;;;;;;;1.25;0.90;;;20.20;84.40;;;;;;6197841;23;20058;-82
2022/09/09 09:57:34;;;;;;;1.45;0.75;;;20.20;85.20;;;;;;6198542;23;19997;-84
2022/09/09 10:00:09;;;;;;;1.13;0.77;;;20.20;85.90;;;;;;6224538;23;20343;-82
2022/09/09 10:02:42;;;;;;;0.70;0.70;;;20.00;86.50;;;;;;6197689;23;20076;-84
2022/09/09 10:05:29;;;;;;;1.40;1.00;;;19.90;87.90;;;;;;6224036;23;19993;-85
2022/09/09 10:08:02;;;;;;;2.83;0.95;;;19.80;89.10;;;;;;6224182;23;20155;-81
2022/09/09 10:10:56;;;;;;;2.95;0.85;;;19.80;89.60;;;;;;6199471;23;20001;-85
2022/09/09 10:14:14;;;;;;;1.30;0.82;;;19.70;90.10;;;;;;6159948;23;20436;-83
2022/09/09 10:16:52;;;;;;;1.63;0.88;;;19.60;90.40;;;;;;6173134;23;20025;-81
2022/09/09 10:19:33;;;;;;;1.00;0.88;;;19.50;90.50;;;;;;6199321;23;20084;-83
2022/09/09 10:22:24;;;;;;;1.43;0.70;;;19.40;90.50;;;;;;6198770;23;20036;-83
2022/09/09 10:25:11;;;;;;;1.00;0.90;;;19.50;90.60;;;;;;6200122;23;20011;-82
2022/09/09 10:28:11;;;;;;;1.58;1.08;;;19.50;90.30;;;;;;6226256;23;20012;-82
2022/09/09 10:30:37;;;;;;;4.15;0.88;;;19.30;90.40;;;;;;6197797;23;20005;-82
2022/09/09 10:33:39;;;;;;;0.88;0.80;;;19.20;90.70;;;;;;6196643;23;20015;-83
2022/09/09 10:36:13;;;;;;;0.98;0.88;;;19.00;90.90;;;;;;6196653;23;20332;-84
2022/09/09 10:38:39;;;;;;;1.90;0.95;;;19.00;91.20;;;;;;6196429;23;20009;-84
2022/09/09 10:41:37;;;;;;;2.95;0.90;;;19.20;91.30;;;;;;6194625;23;20001;-83
2022/09/09 10:44:17;;;;;;;1.08;0.90;;;19.40;91.20;;;;;;6193877;23;20005;-88
2022/09/09 10:46:45;;;;;;;0.50;0.50;;;19.70;91.10;;;;;;6193873;23;20008;-84
2022/09/09 10:49:45;;;;;;;1.98;1.17;;;20.00;90.80;;;;;;6194138;23;20058;-84
2022/09/09 10:52:13;;;;;;;1.38;0.82;;;20.20;90.30;;;;;;6193625;23;20004;-84
2022/09/09 10:55:00;;;;;;;1.20;0.70;;;20.20;89.30;;;;;;6193836;23;20015;-85
2022/09/09 10:57:37;;;;;;;1.13;0.70;;;20.20;88.70;;;;;;6193076;23;19997;-84
2022/09/09 11:52:37;;;;;;;1.10;0.50;;;22.50;72.60;;;;;;6204387;23;20079;-87
2022/09/09 11:56:13;;;;;;;1.15;0.57;;;22.20;72.80;;;;;;6142829;23;20014;-86
2022/09/09 12:21:08;;;;;;;1.08;0.60;;;21.40;74.50;;;;;;6111828;23;20145;-86
2022/09/09 12:34:55;;;;;;;0.93;0.50;;;22.00;71.90;;;;;;6132333;23;20036;-85
2022/09/09 12:48:36;;;;;;;0.93;0.60;;;22.50;69.00;;;;;;6029999;23;20064;-86
2022/09/09 12:51:49;;;;;;;0.68;0.68;;;22.70;68.90;;;;;;6105933;23;20006;-87
2022/09/09 12:58:20;;;;;;;1.17;0.60;;;23.50;67.40;;;;;;6032922;23;20023;-89
2022/09/09 13:05:14;;;;;;;1.17;0.80;;;23.50;65.40;;;;;;5999467;24;20072;-86
2022/09/09 13:19:21;;;;;;;0.70;0.70;;;22.30;70.90;;;;;;5975988;24;20111;-85
2022/09/09 13:49:33;;;;;;;0.30;0.30;;;22.10;70.40;;;;;;6221132;23;20043;-87
2022/09/09 13:52:52;;;;;;;1.85;0.40;;;22.00;70.60;;;;;;6212457;23;20012;-87
2022/09/09 13:55:39;;;;;;;0.73;0.50;;;21.70;71.60;;;;;;6219420;23;20156;-85
2022/09/09 13:58:27;;;;;;;0.57;0.55;;;21.60;71.20;;;;;;6167980;23;20012;-84
2022/09/09 14:01:40;;;;;;;0.75;0.52;;;21.50;72.30;;;;;;6193587;23;20335;-85
2022/09/09 14:05:27;;;;;;;0.40;0.40;;;21.40;72.80;;;;;;6158491;23;20076;-85
2022/09/09 14:08:51;;;;;;;2.30;0.60;;;21.10;73.60;;;;;;6013066;23;20007;-84
2022/09/09 14:11:40;;;;;;;0.77;0.50;;;20.80;73.70;;;;;;5982798;24;20033;-84
2022/09/09 14:14:50;;;;;;;1.27;0.70;;;20.70;74.90;;;;;;5981876;24;20452;-83
2022/09/09 14:17:24;;;;;;;0.57;0.30;;;20.70;75.30;;;;;;5897363;24;20350;-82
2022/09/09 14:20:35;;;;;;;0.57;0.57;;;20.60;75.90;;;;;;5955448;24;20091;-84
2022/09/09 14:33:18;;;;;;;1.30;0.60;;;20.60;76.70;;;;;;5900649;24;20078;-84
2022/09/09 15:00:21;;;;;;;1.65;0.85;;;19.80;79.30;;;;;;6120998;23;20088;-84
2022/09/09 15:07:16;;;;;;;0.43;0.33;;;19.80;79.40;;;;;;5927269;24;20058;-84
2022/09/09 15:13:37;;;;;;;1.48;0.70;;;19.80;78.90;;;;;;5929120;24;20017;-84
2022/09/09 15:16:36;;;;;;;1.85;0.57;;;19.80;78.60;;;;;;5874472;24;20014;-86
2022/09/09 15:23:22;;;;;;;1.60;0.70;;;19.70;78.30;;;;;;5821618;24;20029;-85
2022/09/09 15:27:03;;;;;;;1.15;0.40;;;19.80;78.40;;;;;;5832376;24;20010;-84
2022/09/09 15:39:59;;;;;;;1.17;0.80;;;19.70;77.10;;;;;;6062546;23;20021;-82
2022/09/09 15:43:11;;;;;;;1.45;0.90;;;19.80;77.20;;;;;;6064068;23;20244;-81
2022/09/09 15:45:42;;;;;;;1.58;0.75;;;19.70;77.30;;;;;;6219377;22;20064;-81
2022/09/09 15:48:08;;;;;;;1.10;0.57;;;19.60;76.90;;;;;;6240680;22;20055;-81
2022/09/09 15:50:34;;;;;;;0.88;0.60;;;19.60;77.10;;;;;;6214300;22;20001;-81
2022/09/09 15:53:08;;;;;;;2.10;0.77;;;19.70;76.80;;;;;;6203057;22;20023;-84
2022/09/09 15:55:39;;;;;;;0.55;0.55;;;19.80;76.10;;;;;;6195281;23;20016;-83
2022/09/09 15:58:05;;;;;;;0.45;0.43;;;20.20;75.30;;;;;;6201991;23;20060;-84
2022/09/09 16:01:13;;;;;;;1.60;0.60;;;20.50;74.40;;;;;;6200301;23;20004;-83
2022/09/09 16:03:50;;;;;;;1.83;0.70;;;20.60;73.90;;;;;;6226641;23;20457;-83
2022/09/09 16:06:36;;;;;;;2.05;0.88;;;20.60;73.70;;;;;;6161438;23;20078;-85
2022/09/09 16:09:20;;;;;;;0.98;0.70;;;20.40;73.00;;;;;;6215755;23;20017;-84
2022/09/09 16:11:53;;;;;;;3.53;0.75;;;20.10;74.30;;;;;;6226829;23;20024;-84
2022/09/09 16:14:22;;;;;;;2.30;1.08;;;19.80;75.30;;;;;;6201481;23;20009;-84
2022/09/09 16:59:28;;;;;;;1.30;0.70;;;18.90;75.90;;;;;;6241154;22;20072;-82
2022/09/09 17:02:00;;;;;;;1.55;0.60;;;18.70;76.60;;;;;;6239834;23;20007;-83
2022/09/09 17:07:59;;;;;;;1.90;0.80;;;18.50;77.80;;;;;;6207383;22;20062;-80
2022/09/09 17:11:32;;;;;;;1.63;0.75;;;18.30;78.20;;;;;;6215376;23;19996;-83
2022/09/09 17:44:36;;;;;;;1.45;0.88;;;17.00;87.10;;;;;;6164222;23;20036;-81
2022/09/09 18:02:35;;;;;;;1.85;0.93;;;16.70;90.60;;;;;;6095743;23;20017;-83
2022/09/09 18:05:09;;;;;;;1.52;1.25;;;16.60;91.00;;;;;;6093853;23;20054;-83
2022/09/09 18:07:50;;;;;;;1.00;0.93;;;16.50;91.30;;;;;;6099640;23;19991;-82
2022/09/09 18:10:18;;;;;;;1.02;0.95;;;16.50;91.60;;;;;;6211246;23;19989;-82
2022/09/09 18:13:43;;;;;;;0.98;0.80;;;16.50;91.90;;;;;;6186133;23;20088;-84
2022/09/09 18:20:18;;;;;;;1.63;1.20;;;16.40;92.50;;;;;;6059778;23;20021;-84
2022/09/09 18:25:52;;;;;;;1.75;0.90;;;16.30;93.10;;;;;;6188750;23;20073;-84
2022/09/09 18:44:20;;;;;;;1.45;1.05;;;16.10;94.80;;;;;;6149713;23;20320;-84
2022/09/09 18:47:14;;;;;;;1.08;0.70;;;16.00;94.90;;;;;;6186584;23;20368;-85
2022/09/09 18:50:00;;;;;;;2.42;1.50;;;16.00;94.90;;;;;;6174066;23;20028;-86
2022/09/09 18:52:26;;;;;;;1.92;1.00;;;16.00;95.20;;;;;;6193012;23;20013;-86
2022/09/09 18:54:52;;;;;;;3.50;1.50;;;16.00;95.40;;;;;;6189925;23;20135;-86
2022/09/09 18:57:18;;;;;;;1.83;1.30;;;15.90;95.50;;;;;;6188060;23;20012;-85
2022/09/09 18:59:44;;;;;;;3.63;0.95;;;15.90;95.70;;;;;;6189698;23;19985;-86